Time;durP1;ratioP1;P1;durP2;ratioP2;P2;SDS_P1;SDS_P2;PMS_P1;PMS_P2;Temp;Humidity;BMP_temperature;BMP_pressure;BME280_temperature;BME280_humidity;BME280_pressure;Samples;Min_cycle;Max_cycle;Signal;HPM_P1;HPM_P2
2021/07/18 00:01:35;;;;;;;;;;;;;;;26.10;46.80;98692.81;5093439;28;20022;-37
2021/07/18 00:04:00;;;;;;;;;;;;;;;26.81;45.40;98691.09;5093437;28;19968;-38
2021/07/18 00:06:26;;;;;;;;;;;;;;;26.48;46.03;98691.88;5093761;28;20222;-38
2021/07/18 00:08:51;;;;;;;;;;;;;;;26.00;47.01;98687.75;5093387;28;19916;-38
2021/07/18 00:11:16;;;;;;;;;;;;;;;25.78;47.94;98688.84;5093504;28;20349;-36
2021/07/18 00:13:42;;;;;;;;;;;;;;;25.96;47.77;98686.81;5093426;28;19920;-38
2021/07/18 00:16:07;;;;;;;;;;;;;;;26.19;47.11;98681.81;5093364;28;19916;-38
2021/07/18 00:18:32;;;;;;;;;;;;;;;26.79;46.35;98689.81;5093318;28;20087;-38
2021/07/18 00:20:57;;;;;;;;;;;;;;;26.15;47.73;98691.81;5093362;28;20109;-38
2021/07/18 00:23:23;;;;;;;;;;;;;;;25.86;49.28;98695.34;5092680;28;19916;-38
2021/07/18 00:25:48;;;;;;;;;;;;;;;25.74;49.72;98691.41;5093365;28;19989;-38
2021/07/18 00:28:13;;;;;;;;;;;;;;;25.90;49.42;98685.38;5093274;28;19961;-36
2021/07/18 00:30:39;;;;;;;;;;;;;;;26.36;48.29;98688.28;5092943;28;19954;-37
2021/07/18 00:33:06;;;;;;;;;;;;;;;26.47;48.25;98689.47;5093031;28;19919;-37
2021/07/18 00:35:31;;;;;;;;;;;;;;;25.94;49.74;98691.78;5093159;28;20360;-37
2021/07/18 00:37:56;;;;;;;;;;;;;;;25.72;50.45;98690.13;5092991;28;20134;-37
2021/07/18 00:40:22;;;;;;;;;;;;;;;25.79;50.52;98695.06;5092635;28;19912;-36
2021/07/18 00:42:47;;;;;;;;;;;;;;;26.07;49.78;98689.97;5092469;28;19920;-36
2021/07/18 00:45:12;;;;;;;;;;;;;;;26.79;48.17;98695.28;5092815;28;19957;-37
2021/07/18 00:47:38;;;;;;;;;;;;;;;26.13;49.96;98694.84;5092809;28;19913;-38
2021/07/18 00:50:04;;;;;;;;;;;;;;;26.21;49.86;98693.19;5092705;28;20368;-38
2021/07/18 00:52:29;;;;;;;;;;;;;;;26.26;49.83;98692.22;5092514;28;20297;-37
2021/07/18 00:54:55;;;;;;;;;;;;;;;26.24;50.10;98692.53;5092885;28;20368;-37
2021/07/18 00:57:20;;;;;;;;;;;;;;;26.79;48.93;98693.38;5091258;28;19916;-37
2021/07/18 00:59:46;;;;;;;;;;;;;;;26.95;48.61;98696.25;5092594;28;19933;-38
2021/07/18 01:02:11;;;;;;;;;;;;;;;26.51;49.92;98690.38;5092477;28;19912;-36
2021/07/18 01:04:36;;;;;;;;;;;;;;;26.43;50.19;98685.81;5090927;28;19919;-37
2021/07/18 01:07:02;;;;;;;;;;;;;;;26.46;50.59;98688.66;5092248;28;20024;-37
2021/07/18 01:09:27;;;;;;;;;;;;;;;26.25;51.33;98688.66;5092028;28;19920;-37
2021/07/18 01:11:53;;;;;;;;;;;;;;;27.05;48.99;98690.34;5092693;28;20326;-38
2021/07/18 01:14:18;;;;;;;;;;;;;;;26.72;50.05;98691.16;5092095;28;19994;-38
2021/07/18 01:16:45;;;;;;;;;;;;;;;26.57;50.52;98689.03;5092143;28;19946;-37
2021/07/18 01:19:10;;;;;;;;;;;;;;;26.91;49.56;98690.66;5090718;28;20276;-37
2021/07/18 01:21:35;;;;;;;;;;;;;;;27.31;48.47;98700.19;5090783;28;19912;-37
2021/07/18 01:24:01;;;;;;;;;;;;;;;27.82;47.08;98686.19;5090643;28;20017;-38
2021/07/18 01:26:26;;;;;;;;;;;;;;;27.89;46.72;98697.34;5091012;28;19936;-37
2021/07/18 01:28:51;;;;;;;;;;;;;;;27.19;48.38;98698.22;5090606;28;19954;-37
2021/07/18 01:31:17;;;;;;;;;;;;;;;26.89;49.15;98692.13;5091932;28;19974;-38
2021/07/18 01:33:42;;;;;;;;;;;;;;;27.09;48.11;98693.19;5089998;28;19969;-37
2021/07/18 01:36:07;;;;;;;;;;;;;;;27.22;47.80;98689.34;5091557;28;19920;-38
2021/07/18 01:38:33;;;;;;;;;;;;;;;27.62;47.14;98690.63;5092073;28;19912;-38
2021/07/18 01:40:58;;;;;;;;;;;;;;;27.21;48.19;98692.44;5091634;28;19918;-38
2021/07/18 01:43:23;;;;;;;;;;;;;;;27.27;47.93;98697.34;5091662;28;20344;-38
2021/07/18 01:45:48;;;;;;;;;;;;;;;27.23;48.25;98699.13;5090166;28;19912;-38
2021/07/18 01:48:14;;;;;;;;;;;;;;;27.19;48.27;98700.13;5091624;28;20284;-38
2021/07/18 01:50:39;;;;;;;;;;;;;;;27.87;46.50;98697.69;5091920;28;20006;-38
2021/07/18 01:53:04;;;;;;;;;;;;;;;27.32;47.65;98695.53;5090835;28;20399;-37
2021/07/18 01:55:30;;;;;;;;;;;;;;;27.05;48.24;98698.53;5091356;28;20035;-37
2021/07/18 01:57:55;;;;;;;;;;;;;;;26.85;48.99;98689.28;5091462;28;20011;-37
2021/07/18 02:00:21;;;;;;;;;;;;;;;27.02;48.26;98692.97;5091517;28;19922;-37
2021/07/18 02:02:49;;;;;;;;;;;;;;;27.35;47.70;98695.63;5090897;28;19916;-37
2021/07/18 02:05:15;;;;;;;;;;;;;;;27.91;46.45;98694.28;5091199;28;19919;-38
2021/07/18 02:07:41;;;;;;;;;;;;;;;27.27;47.85;98697.34;5091135;28;19912;-37
2021/07/18 02:10:06;;;;;;;;;;;;;;;26.55;49.83;98701.44;5091331;28;19920;-38
2021/07/18 02:12:33;;;;;;;;;;;;;;;26.64;49.56;98697.53;5091155;28;20320;-38
2021/07/18 02:14:58;;;;;;;;;;;;;;;26.96;48.94;98691.56;5091152;28;19923;-38
2021/07/18 02:17:23;;;;;;;;;;;;;;;27.56;46.90;98697.47;5090988;28;19920;-37
2021/07/18 02:19:48;;;;;;;;;;;;;;;27.47;46.79;98697.56;5090960;28;20006;-37
2021/07/18 02:22:14;;;;;;;;;;;;;;;27.17;47.15;98694.22;5090901;28;19919;-37
2021/07/18 02:24:39;;;;;;;;;;;;;;;27.13;47.38;98699.59;5090990;28;19912;-37
2021/07/18 02:27:07;;;;;;;;;;;;;;;27.28;46.55;98706.31;5091036;28;19963;-37
2021/07/18 02:29:32;;;;;;;;;;;;;;;27.69;45.12;98702.59;5091298;28;19912;-37
2021/07/18 02:31:57;;;;;;;;;;;;;;;27.74;45.05;98704.31;5091299;28;19997;-37
2021/07/18 02:34:23;;;;;;;;;;;;;;;27.38;45.58;98705.91;5090894;28;19918;-37
2021/07/18 02:36:48;;;;;;;;;;;;;;;27.30;46.16;98710.31;5090832;28;19912;-38
2021/07/18 02:39:13;;;;;;;;;;;;;;;27.55;45.58;98704.88;5090096;28;19934;-38
2021/07/18 02:41:39;;;;;;;;;;;;;;;27.68;45.07;98701.00;5090949;28;19916;-38
2021/07/18 02:44:07;;;;;;;;;;;;;;;28.54;43.00;98700.06;5090475;28;19923;-38
2021/07/18 02:46:33;;;;;;;;;;;;;;;27.78;44.11;98705.19;5093758;28;19969;-37
2021/07/18 02:48:58;;;;;;;;;;;;;;;27.59;44.76;98705.78;5095058;28;19951;-38
2021/07/18 02:51:23;;;;;;;;;;;;;;;27.53;44.77;98706.34;5094811;28;19982;-37
2021/07/18 02:53:49;;;;;;;;;;;;;;;27.47;45.05;98722.16;5094895;28;19926;-37
2021/07/18 02:56:14;;;;;;;;;;;;;;;27.97;43.62;98696.44;5094757;28;19912;-38
2021/07/18 02:58:39;;;;;;;;;;;;;;;27.66;44.81;98716.94;5095001;28;19912;-39
2021/07/18 03:01:04;;;;;;;;;;;;;;;27.29;45.50;98719.66;5093726;28;19912;-38
2021/07/18 03:03:30;;;;;;;;;;;;;;;27.14;46.15;98711.28;5094398;28;20237;-38
2021/07/18 03:05:55;;;;;;;;;;;;;;;27.42;45.76;98719.66;5094794;28;19959;-37
2021/07/18 03:08:20;;;;;;;;;;;;;;;27.76;44.91;98717.59;5094738;28;20295;-37
2021/07/18 03:10:46;;;;;;;;;;;;;;;28.49;42.99;98715.91;5094457;28;20360;-37
2021/07/18 03:13:11;;;;;;;;;;;;;;;27.90;43.89;98715.34;5094346;28;19938;-37
2021/07/18 03:15:36;;;;;;;;;;;;;;;27.63;44.56;98725.03;5094466;28;19924;-37
2021/07/18 03:18:02;;;;;;;;;;;;;;;27.55;44.50;98720.44;5101091;28;19959;-36
2021/07/18 03:20:27;;;;;;;;;;;;;;;27.59;44.44;98727.66;5114518;28;19965;-38
2021/07/18 03:22:52;;;;;;;;;;;;;;;27.99;43.70;98720.69;5114711;28;19916;-37
2021/07/18 03:25:18;;;;;;;;;;;;;;;27.99;43.36;98726.16;5114490;28;19915;-36
2021/07/18 03:27:43;;;;;;;;;;;;;;;27.41;44.67;98731.72;5114639;28;20387;-37
2021/07/18 03:30:09;;;;;;;;;;;;;;;27.27;44.92;98732.84;5114768;28;19929;-37
2021/07/18 03:32:35;;;;;;;;;;;;;;;27.35;45.47;98733.88;5114559;28;19923;-37
2021/07/18 03:35:01;;;;;;;;;;;;;;;27.59;44.91;98730.38;5114558;28;19912;-38
2021/07/18 03:37:26;;;;;;;;;;;;;;;28.18;43.52;98729.09;5114413;28;19911;-38
2021/07/18 03:39:52;;;;;;;;;;;;;;;28.00;43.93;98730.47;5114527;28;20205;-37
2021/07/18 03:42:17;;;;;;;;;;;;;;;27.48;45.13;98726.50;5113226;28;19955;-37
2021/07/18 03:44:42;;;;;;;;;;;;;;;27.36;46.03;98734.66;5114370;28;19919;-37
2021/07/18 03:47:08;;;;;;;;;;;;;;;27.57;45.30;98742.75;5114392;28;19922;-37
2021/07/18 03:49:33;;;;;;;;;;;;;;;27.85;44.64;98737.41;5114303;28;19911;-38
2021/07/18 03:51:59;;;;;;;;;;;;;;;28.44;43.01;98728.69;5114048;28;20059;-38
2021/07/18 03:54:24;;;;;;;;;;;;;;;28.00;44.17;98742.22;5114186;28;19943;-38
2021/07/18 03:56:49;;;;;;;;;;;;;;;27.73;45.12;98737.44;5113478;28;19935;-37
2021/07/18 03:59:15;;;;;;;;;;;;;;;27.54;45.53;98743.47;5112089;28;19912;-37
2021/07/18 04:01:40;;;;;;;;;;;;;;;27.57;45.18;98740.03;5106780;28;19962;-37
2021/07/18 04:04:05;;;;;;;;;;;;;;;27.50;45.70;98743.34;5092810;28;20004;-37
2021/07/18 04:06:30;;;;;;;;;;;;;;;28.07;44.70;98738.91;5092921;28;19969;-38
2021/07/18 04:08:56;;;;;;;;;;;;;;;27.94;44.57;98745.53;5092715;28;20002;-38
2021/07/18 04:11:21;;;;;;;;;;;;;;;27.53;45.85;98747.31;5092747;28;19912;-37
2021/07/18 04:13:46;;;;;;;;;;;;;;;27.56;45.55;98750.16;5092886;28;20003;-37
2021/07/18 04:16:11;;;;;;;;;;;;;;;27.58;46.15;98747.09;5092614;28;19913;-37
2021/07/18 04:18:37;;;;;;;;;;;;;;;27.81;45.77;98744.72;5092380;28;20312;-37
2021/07/18 04:21:02;;;;;;;;;;;;;;;28.41;44.28;98747.72;5092626;28;19946;-37
2021/07/18 04:23:27;;;;;;;;;;;;;;;28.16;43.59;98750.53;5090758;28;20344;-38
2021/07/18 04:25:53;;;;;;;;;;;;;;;27.91;43.58;98747.00;5092914;28;19919;-38
2021/07/18 04:28:18;;;;;;;;;;;;;;;27.75;43.96;98768.75;5092693;28;19916;-37
2021/07/18 04:30:43;;;;;;;;;;;;;;;27.65;43.91;98761.78;5092687;28;19959;-37
2021/07/18 04:33:09;;;;;;;;;;;;;;;27.86;43.82;98766.34;5092425;28;19912;-38
2021/07/18 04:35:34;;;;;;;;;;;;;;;28.18;43.08;98755.63;5092399;28;20375;-37
2021/07/18 04:37:59;;;;;;;;;;;;;;;28.24;42.87;98760.53;5090827;28;19964;-38
2021/07/18 04:40:28;;;;;;;;;;;;;;;27.89;43.72;98760.22;5092305;28;19912;-38
2021/07/18 04:42:53;;;;;;;;;;;;;;;27.81;44.20;98759.16;5092213;28;20087;-36
2021/07/18 04:45:18;;;;;;;;;;;;;;;27.95;43.74;98760.78;5092132;28;20371;-37
2021/07/18 04:47:44;;;;;;;;;;;;;;;28.25;43.44;98756.66;5091965;28;20312;-37
2021/07/18 04:50:10;;;;;;;;;;;;;;;28.78;42.17;98756.59;5091890;28;20534;-36
2021/07/18 04:52:35;;;;;;;;;;;;;;;28.92;41.73;98758.97;5091916;28;19919;-36
2021/07/18 04:55:01;;;;;;;;;;;;;;;28.69;41.94;98760.63;5092129;28;19961;-37
2021/07/18 04:57:26;;;;;;;;;;;;;;;28.72;42.08;98763.47;5091744;28;20299;-38
2021/07/18 04:59:51;;;;;;;;;;;;;;;29.07;41.41;98760.13;5091835;28;20411;-37
2021/07/18 05:02:16;;;;;;;;;;;;;;;29.49;40.08;98758.84;5091341;28;19920;-38
2021/07/18 05:04:42;;;;;;;;;;;;;;;30.27;38.73;98759.13;5091105;28;20324;-37
2021/07/18 05:07:08;;;;;;;;;;;;;;;30.05;39.21;98763.34;5091836;28;19919;-38
2021/07/18 05:09:33;;;;;;;;;;;;;;;30.06;39.32;98762.97;5090589;28;20432;-37
2021/07/18 05:11:58;;;;;;;;;;;;;;;30.38;39.00;98771.16;5091468;28;20025;-36
2021/07/18 05:14:23;;;;;;;;;;;;;;;30.85;37.85;98769.38;5091665;28;19912;-37
2021/07/18 05:16:49;;;;;;;;;;;;;;;31.53;36.60;98773.41;5086777;28;19917;-36
2021/07/18 05:19:14;;;;;;;;;;;;;;;31.72;36.38;98770.56;5105022;28;20019;-38
2021/07/18 05:21:39;;;;;;;;;;;;;;;31.43;36.57;98772.00;5111701;28;19924;-38
2021/07/18 05:24:05;;;;;;;;;;;;;;;31.76;36.18;98774.16;5103213;28;19920;-36
2021/07/18 05:26:30;;;;;;;;;;;;;;;32.10;35.39;98778.97;5091625;28;19912;-37
2021/07/18 05:28:55;;;;;;;;;;;;;;;32.27;34.63;98775.72;5091365;28;19912;-37
2021/07/18 05:31:20;;;;;;;;;;;;;;;33.02;33.51;98781.34;5091793;28;19912;-38
2021/07/18 05:33:46;;;;;;;;;;;;;;;32.75;34.02;98777.91;5091531;28;20074;-38
2021/07/18 05:36:11;;;;;;;;;;;;;;;32.61;34.21;98777.72;5091113;28;20003;-38
2021/07/18 05:38:37;;;;;;;;;;;;;;;32.82;34.17;98780.72;5090989;28;19912;-38
2021/07/18 05:41:02;;;;;;;;;;;;;;;33.13;33.54;98780.69;5091113;28;19919;-37
2021/07/18 05:43:28;;;;;;;;;;;;;;;33.94;32.42;98782.59;5091302;28;20003;-37
2021/07/18 05:45:53;;;;;;;;;;;;;;;33.90;32.24;98787.28;5091151;28;19912;-38
2021/07/18 05:48:23;;;;;;;;;;;;;;;34.11;32.35;98777.56;5091209;28;19922;-38
2021/07/18 05:50:48;;;;;;;;;;;;;;;34.37;31.76;98782.88;5091085;28;20627;-37
2021/07/18 05:53:13;;;;;;;;;;;;;;;35.14;31.08;98787.50;5090809;28;19939;-37
2021/07/18 05:55:39;;;;;;;;;;;;;;;34.53;31.63;98782.53;5090710;28;19919;-38
2021/07/18 05:58:04;;;;;;;;;;;;;;;34.61;31.26;98784.16;5089872;28;19918;-38
2021/07/18 06:00:29;;;;;;;;;;;;;;;35.08;30.80;98783.56;5090619;28;19981;-38
2021/07/18 06:02:54;;;;;;;;;;;;;;;35.23;30.19;98768.59;5090536;28;19916;-38
2021/07/18 06:05:20;;;;;;;;;;;;;;;36.18;28.92;98770.94;5090778;28;20041;-37
2021/07/18 06:07:45;;;;;;;;;;;;;;;35.44;30.67;98779.66;5090852;28;19942;-38
2021/07/18 06:10:11;;;;;;;;;;;;;;;35.50;31.27;98779.28;5090273;28;19916;-38
2021/07/18 06:12:36;;;;;;;;;;;;;;;35.88;30.39;98782.44;5089060;28;19920;-38
2021/07/18 06:15:01;;;;;;;;;;;;;;;36.42;30.05;98782.34;5090245;28;19912;-38
2021/07/18 06:17:27;;;;;;;;;;;;;;;36.41;30.31;98773.25;5090573;28;19920;-38
2021/07/18 06:19:53;;;;;;;;;;;;;;;35.70;30.88;98774.16;5090114;28;19927;-38
2021/07/18 06:22:19;;;;;;;;;;;;;;;35.82;31.00;98765.47;5090337;28;19923;-37
2021/07/18 06:24:44;;;;;;;;;;;;;;;36.37;29.32;98767.72;5090285;28;19920;-38
2021/07/18 06:27:09;;;;;;;;;;;;;;;35.81;30.76;98761.91;5090486;28;20329;-38
2021/07/18 06:29:35;;;;;;;;;;;;;;;35.51;30.79;98767.00;5090658;28;19912;-38
2021/07/18 06:32:00;;;;;;;;;;;;;;;35.99;30.75;98756.31;5090378;28;20359;-38
2021/07/18 06:34:26;;;;;;;;;;;;;;;36.19;30.49;98759.47;5090112;28;19912;-38
2021/07/18 06:36:52;;;;;;;;;;;;;;;36.18;30.11;98763.44;5089990;28;20485;-38
2021/07/18 06:39:18;;;;;;;;;;;;;;;36.01;30.79;98762.25;5090537;28;19912;-37
2021/07/18 06:41:43;;;;;;;;;;;;;;;36.18;30.91;98759.88;5090168;28;20348;-38
2021/07/18 06:44:08;;;;;;;;;;;;;;;35.97;31.79;98755.16;5090190;28;19927;-38
2021/07/18 06:46:34;;;;;;;;;;;;;;;36.65;30.48;98754.94;5090193;28;20030;-38
2021/07/18 06:48:59;;;;;;;;;;;;;;;36.23;31.17;98753.91;5090030;28;19935;-38
2021/07/18 06:51:24;;;;;;;;;;;;;;;36.25;31.20;98757.06;5090083;28;19912;-38
2021/07/18 06:53:50;;;;;;;;;;;;;;;36.59;31.14;98757.34;5090378;28;19912;-38
2021/07/18 06:56:15;;;;;;;;;;;;;;;37.24;30.25;98751.44;5090506;28;19912;-38
2021/07/18 06:58:40;;;;;;;;;;;;;;;37.27;29.89;98749.88;5088937;28;20339;-51
2021/07/18 07:01:05;;;;;;;;;;;;;;;37.26;30.24;98753.81;5089763;28;19943;-51
2021/07/18 07:03:31;;;;;;;;;;;;;;;37.32;30.47;98747.44;5088997;28;19920;-50
2021/07/18 07:05:56;;;;;;;;;;;;;;;37.65;30.21;98741.66;5090312;28;19913;-38
2021/07/18 07:08:21;;;;;;;;;;;;;;;37.72;29.07;98744.38;5090017;28;19968;-37
2021/07/18 07:10:48;;;;;;;;;;;;;;;36.69;30.37;98744.66;5090344;28;19913;-38
2021/07/18 07:13:13;;;;;;;;;;;;;;;37.16;29.92;98736.06;5090108;28;20588;-38
2021/07/18 07:15:39;;;;;;;;;;;;;;;37.50;29.48;98738.19;5089979;28;19918;-37
2021/07/18 07:18:04;;;;;;;;;;;;;;;38.69;28.39;98727.41;5096976;28;20026;-39
2021/07/18 07:20:29;;;;;;;;;;;;;;;38.27;28.95;98734.25;5109026;28;19916;-38
2021/07/18 07:22:55;;;;;;;;;;;;;;;38.16;28.74;98734.41;5099532;28;19976;-38
2021/07/18 07:25:20;;;;;;;;;;;;;;;38.01;29.00;98733.75;5089991;28;20265;-38
2021/07/18 07:27:45;;;;;;;;;;;;;;;38.28;28.22;98727.50;5089727;28;20383;-38
2021/07/18 07:30:11;;;;;;;;;;;;;;;37.45;29.71;98736.66;5087858;28;19998;-37
2021/07/18 07:32:37;;;;;;;;;;;;;;;36.50;30.86;98728.47;5084163;28;19926;-39
2021/07/18 07:35:06;;;;;;;;;;;;;;;36.27;31.79;98723.44;5081598;28;19932;-38
2021/07/18 07:37:31;;;;;;;;;;;;;;;36.65;30.96;98734.75;5079684;28;20352;-38
2021/07/18 07:39:56;;;;;;;;;;;;;;;36.96;30.54;98727.47;5074073;28;19912;-37
2021/07/18 07:42:22;;;;;;;;;;;;;;;36.89;30.57;98722.75;5073741;28;19919;-38
2021/07/18 07:44:48;;;;;;;;;;;;;;;36.84;30.48;98725.94;5073480;28;19917;-37
2021/07/18 07:47:13;;;;;;;;;;;;;;;36.45;30.93;98726.16;5073303;28;19969;-38
2021/07/18 07:49:39;;;;;;;;;;;;;;;37.12;30.27;98724.19;5073664;28;19916;-37
2021/07/18 07:52:04;;;;;;;;;;;;;;;36.58;30.89;98724.50;5073214;28;19977;-39
2021/07/18 07:54:29;;;;;;;;;;;;;;;36.45;30.91;98718.63;5073102;28;19913;-39
2021/07/18 07:56:55;;;;;;;;;;;;;;;36.81;31.31;98718.47;5073575;28;19919;-37
2021/07/18 07:59:20;;;;;;;;;;;;;;;37.87;28.84;98720.00;5073748;28;20348;-38
2021/07/18 08:01:45;;;;;;;;;;;;;;;35.81;31.92;98714.06;5079224;28;20357;-38
2021/07/18 08:04:11;;;;;;;;;;;;;;;35.22;33.38;98714.47;5093387;28;19916;-38
2021/07/18 08:06:36;;;;;;;;;;;;;;;35.98;32.23;98712.44;5093657;28;20334;-38
2021/07/18 08:09:01;;;;;;;;;;;;;;;36.80;30.87;98716.88;5092961;28;19934;-37
2021/07/18 08:11:26;;;;;;;;;;;;;;;35.43;32.57;98717.25;5093250;28;19985;-38
2021/07/18 08:13:52;;;;;;;;;;;;;;;35.75;31.98;98705.38;5092753;28;19922;-38
2021/07/18 08:16:17;;;;;;;;;;;;;;;36.46;31.25;98711.91;5092597;28;20007;-38
2021/07/18 08:18:42;;;;;;;;;;;;;;;37.53;30.17;98706.84;5092548;28;19924;-39
2021/07/18 08:21:07;;;;;;;;;;;;;;;37.02;30.05;98700.13;5092628;28;20304;-38
2021/07/18 08:23:33;;;;;;;;;;;;;;;36.79;31.42;98690.38;5092635;28;19923;-38
2021/07/18 08:25:58;;;;;;;;;;;;;;;36.64;31.24;98688.84;5092482;28;19967;-37
2021/07/18 08:28:24;;;;;;;;;;;;;;;36.84;30.61;98689.13;5092379;28;20034;-39
2021/07/18 08:30:49;;;;;;;;;;;;;;;36.37;31.09;98695.72;5092758;28;19977;-38
2021/07/18 08:33:15;;;;;;;;;;;;;;;35.64;32.42;98682.44;5092581;28;20276;-38
2021/07/18 08:35:40;;;;;;;;;;;;;;;35.86;31.95;98683.22;5092485;28;19973;-37
2021/07/18 08:38:06;;;;;;;;;;;;;;;35.17;32.78;98682.50;5092538;28;19919;-38
2021/07/18 08:40:32;;;;;;;;;;;;;;;35.11;33.05;98670.22;5092144;28;20404;-37
2021/07/18 08:42:58;;;;;;;;;;;;;;;35.00;33.55;98663.91;5092470;28;20375;-39
2021/07/18 08:45:23;;;;;;;;;;;;;;;35.33;32.91;98667.47;5091020;28;19913;-37
2021/07/18 08:47:48;;;;;;;;;;;;;;;35.40;33.09;98662.72;5092300;28;19935;-38
2021/07/18 08:50:14;;;;;;;;;;;;;;;35.80;32.20;98657.16;5090904;28;19974;-38
2021/07/18 08:52:39;;;;;;;;;;;;;;;35.29;33.56;98663.94;5092117;28;20394;-38
2021/07/18 08:55:05;;;;;;;;;;;;;;;35.71;32.20;98656.78;5090935;28;19912;-38
2021/07/18 08:57:30;;;;;;;;;;;;;;;36.09;30.77;98665.34;5092068;28;20018;-38
2021/07/18 08:59:55;;;;;;;;;;;;;;;36.14;30.75;98662.97;5090603;28;19919;-38
2021/07/18 09:02:21;;;;;;;;;;;;;;;35.55;31.71;98652.44;5091880;28;19912;-38
2021/07/18 09:04:46;;;;;;;;;;;;;;;35.40;32.08;98659.19;5091895;28;19935;-38
2021/07/18 09:07:14;;;;;;;;;;;;;;;35.78;31.15;98648.47;5091665;28;19912;-38
2021/07/18 09:09:39;;;;;;;;;;;;;;;36.53;30.25;98642.59;5092320;28;20054;-38
2021/07/18 09:12:06;;;;;;;;;;;;;;;36.88;30.53;98640.00;5092096;28;20392;-38
2021/07/18 09:14:31;;;;;;;;;;;;;;;36.20;30.51;98633.69;5091591;28;20376;-38
2021/07/18 09:16:57;;;;;;;;;;;;;;;36.27;30.71;98627.34;5091727;28;19923;-38
2021/07/18 09:19:26;;;;;;;;;;;;;;;35.91;30.97;98635.78;5109975;28;19924;-38
2021/07/18 09:22:07;;;;;;;;;;;;;;;36.07;31.07;98634.53;5112076;28;20018;-38
2021/07/18 09:24:36;;;;;;;;;;;;;;;34.87;32.26;98621.28;5111949;28;20387;-38
2021/07/18 09:27:05;;;;;;;;;;;;;;;34.59;32.54;98622.78;5111955;28;19968;-37
2021/07/18 09:29:31;;;;;;;;;;;;;;;35.00;32.27;98633.50;5111349;28;19924;-37
2021/07/18 09:32:06;;;;;;;;;;;;;;;34.57;32.65;98625.94;5111794;28;19932;-38
2021/07/18 09:34:32;;;;;;;;;;;;;;;34.16;33.94;98636.50;5111954;28;20360;-38
2021/07/18 09:37:24;;;;;;;;;;;;;;;34.57;32.93;98634.22;5111550;28;19919;-38
2021/07/18 09:39:55;;;;;;;;;;;;;;;34.81;32.19;98627.19;5110556;28;19954;-38
2021/07/18 09:42:24;;;;;;;;;;;;;;;34.53;32.91;98616.06;5111864;28;19912;-38
2021/07/18 09:44:49;;;;;;;;;;;;;;;35.05;32.19;98613.75;5111807;28;20420;-38
2021/07/18 09:47:15;;;;;;;;;;;;;;;35.03;32.23;98608.63;5096456;28;19912;-38
2021/07/18 09:49:40;;;;;;;;;;;;;;;35.24;32.39;98618.91;5091539;28;19912;-38
2021/07/18 09:52:19;;;;;;;;;;;;;;;35.76;31.25;98623.97;5091649;28;19998;-39
2021/07/18 09:54:48;;;;;;;;;;;;;;;34.51;33.00;98621.19;5090987;28;19912;-38
2021/07/18 09:57:33;;;;;;;;;;;;;;;34.97;31.18;98618.50;5091319;28;19968;-36
2021/07/18 09:59:58;;;;;;;;;;;;;;;34.88;31.38;98614.53;5091093;28;19912;-38
2021/07/18 10:02:29;;;;;;;;;;;;;;;35.02;31.74;98609.81;5091061;28;19912;-38
2021/07/18 10:04:55;;;;;;;;;;;;;;;35.00;31.57;98605.88;5089526;28;20016;-38
2021/07/18 10:07:28;;;;;;;;;;;;;;;35.61;30.57;98603.03;5091025;28;20023;-38
2021/07/18 10:09:54;;;;;;;;;;;;;;;36.06;30.12;98603.25;5090970;28;19916;-38
2021/07/18 10:12:19;;;;;;;;;;;;;;;35.57;30.07;98605.03;5089889;28;19928;-38
2021/07/18 10:14:44;;;;;;;;;;;;;;;35.66;30.64;98599.84;5090864;28;19916;-38
2021/07/18 10:17:10;;;;;;;;;;;;;;;35.59;30.13;98597.13;5090974;28;19916;-38
2021/07/18 10:19:35;;;;;;;;;;;;;;;35.51;30.24;98592.78;5070475;28;20462;-38
2021/07/18 10:22:01;;;;;;;;;;;;;;;35.42;30.73;98602.28;5070826;28;19912;-38
2021/07/18 10:24:26;;;;;;;;;;;;;;;34.49;31.45;98599.50;5069513;28;20375;-38
2021/07/18 10:26:51;;;;;;;;;;;;;;;34.91;31.43;98581.41;5070774;28;20415;-36
2021/07/18 10:29:17;;;;;;;;;;;;;;;35.78;29.88;98579.31;5070540;28;19916;-38
2021/07/18 10:31:49;;;;;;;;;;;;;;;36.13;29.58;98575.56;5069443;28;20064;-39
2021/07/18 10:34:14;;;;;;;;;;;;;;;36.48;28.90;98576.56;5070730;28;20357;-38
2021/07/18 10:36:40;;;;;;;;;;;;;;;36.32;29.07;98571.50;5069446;28;19971;-38
2021/07/18 10:39:24;;;;;;;;;;;;;;;36.48;28.76;98564.69;5070575;28;19913;-38
2021/07/18 10:41:49;;;;;;;;;;;;;;;36.20;29.29;98574.78;5070665;28;19967;-38
2021/07/18 10:44:18;;;;;;;;;;;;;;;35.63;29.82;98584.06;5070386;28;19959;-38
2021/07/18 10:46:46;;;;;;;;;;;;;;;34.71;30.59;98574.69;5079830;28;20051;-38
2021/07/18 10:49:14;;;;;;;;;;;;;;;35.26;30.52;98565.19;5090520;28;19912;-38
2021/07/18 10:51:40;;;;;;;;;;;;;;;35.85;28.99;98567.41;5090507;28;19919;-38
2021/07/18 10:54:08;;;;;;;;;;;;;;;35.58;30.29;98576.16;5090495;28;19961;-38
2021/07/18 10:56:41;;;;;;;;;;;;;;;34.98;30.83;98569.56;5090700;28;19919;-39
2021/07/18 10:59:06;;;;;;;;;;;;;;;35.55;30.38;98546.56;5090619;28;19916;-39
2021/07/18 11:01:32;;;;;;;;;;;;;;;35.96;29.63;98551.53;5089481;28;20242;-38
2021/07/18 11:03:57;;;;;;;;;;;;;;;36.43;29.48;98545.75;5090747;28;19920;-39
2021/07/18 11:06:23;;;;;;;;;;;;;;;36.15;28.93;98547.47;5090523;28;19950;-38
2021/07/18 11:09:07;;;;;;;;;;;;;;;35.68;29.80;98552.44;5093433;28;19968;-38
2021/07/18 11:11:38;;;;;;;;;;;;;;;34.58;31.03;98541.91;5094569;28;19912;-39
2021/07/18 11:14:21;;;;;;;;;;;;;;;35.41;30.15;98547.38;5092848;28;19912;-38
2021/07/18 11:16:50;;;;;;;;;;;;;;;35.18;29.71;98548.63;5094353;28;19920;-40
2021/07/18 11:19:34;;;;;;;;;;;;;;;35.98;29.45;98541.63;5111651;28;19930;-39
2021/07/18 11:22:00;;;;;;;;;;;;;;;37.08;28.48;98529.38;5114640;28;19916;-39
2021/07/18 11:24:43;;;;;;;;;;;;;;;37.31;27.66;98521.22;5114215;28;19916;-38
2021/07/18 11:27:27;;;;;;;;;;;;;;;36.60;28.04;98528.97;5114621;28;20002;-38
2021/07/18 11:29:53;;;;;;;;;;;;;;;36.25;28.37;98530.03;5114445;28;20406;-38
2021/07/18 11:32:19;;;;;;;;;;;;;;;36.25;28.62;98532.78;5114555;28;19911;-39
2021/07/18 11:34:45;;;;;;;;;;;;;;;36.42;28.80;98522.78;5114343;28;19912;-39
2021/07/18 11:37:11;;;;;;;;;;;;;;;35.95;29.26;98508.47;5114398;28;20006;-38
2021/07/18 11:39:37;;;;;;;;;;;;;;;36.09;29.10;98522.19;5114131;27;19911;-38
2021/07/18 11:42:02;;;;;;;;;;;;;;;35.89;29.86;98518.34;5114456;28;19912;-38
2021/07/18 11:44:28;;;;;;;;;;;;;;;36.11;29.74;98507.97;5113921;28;19965;-38
2021/07/18 11:46:55;;;;;;;;;;;;;;;36.61;28.68;98513.13;5102955;28;19912;-39
2021/07/18 11:49:23;;;;;;;;;;;;;;;36.39;28.63;98507.78;5093841;28;19908;-37
2021/07/18 11:51:49;;;;;;;;;;;;;;;36.02;29.70;98522.22;5092422;28;19911;-38
2021/07/18 11:54:17;;;;;;;;;;;;;;;36.17;29.31;98525.75;5093401;28;20218;-38
2021/07/18 11:56:43;;;;;;;;;;;;;;;36.56;28.00;98506.06;5093841;28;19954;-38
2021/07/18 11:59:12;;;;;;;;;;;;;;;37.14;27.74;98502.78;5093354;28;20325;-39
2021/07/18 12:01:38;;;;;;;;;;;;;;;36.92;27.92;98499.44;5093283;28;19947;-38
2021/07/18 12:04:04;;;;;;;;;;;;;;;37.36;27.59;98517.22;5093464;28;19920;-38
2021/07/18 12:06:30;;;;;;;;;;;;;;;37.08;27.52;98504.41;5093532;28;19912;-40
2021/07/18 12:08:59;;;;;;;;;;;;;;;37.76;26.64;98509.22;5093298;28;19927;-39
2021/07/18 12:11:25;;;;;;;;;;;;;;;37.28;26.91;98496.28;5093488;28;20026;-38
2021/07/18 12:13:52;;;;;;;;;;;;;;;37.55;26.38;98511.03;5093142;28;20323;-36
2021/07/18 12:16:17;;;;;;;;;;;;;;;37.79;26.21;98494.50;5092853;28;20425;-38
2021/07/18 12:18:46;;;;;;;;;;;;;;;37.36;26.40;98495.03;5092597;28;19931;-39
2021/07/18 12:21:18;;;;;;;;;;;;;;;37.26;26.99;98493.16;5093032;28;19990;-39
2021/07/18 12:23:43;;;;;;;;;;;;;;;37.55;26.65;98490.84;5093030;28;20357;-40
2021/07/18 12:26:08;;;;;;;;;;;;;;;37.01;27.75;98496.16;5093342;28;19912;-39
2021/07/18 12:28:34;;;;;;;;;;;;;;;36.75;27.83;98485.34;5093091;28;19920;-39
2021/07/18 12:31:10;;;;;;;;;;;;;;;36.51;28.09;98489.09;5092921;28;20387;-37
2021/07/18 12:33:35;;;;;;;;;;;;;;;36.37;28.30;98490.00;5093105;28;20309;-38
2021/07/18 12:36:02;;;;;;;;;;;;;;;36.54;28.37;98478.00;5092935;28;19912;-38
2021/07/18 12:38:27;;;;;;;;;;;;;;;36.68;27.67;98473.53;5091677;28;19962;-39
2021/07/18 12:40:58;;;;;;;;;;;;;;;37.34;27.14;98467.72;5092629;28;19912;-39
2021/07/18 12:43:23;;;;;;;;;;;;;;;36.90;27.34;98472.13;5092769;28;20030;-38